createdAt,value
2022-12-11T00:00:57.205Z,30.48
2022-12-11T00:03:43.744Z,28.48
2022-12-11T00:06:14.338Z,27.92
2022-12-11T00:08:42.209Z,26.88
2022-12-11T00:11:13.891Z,27.77
2022-12-11T00:13:41.744Z,30.17
2022-12-11T00:16:10.248Z,25.00
2022-12-11T00:18:38.544Z,26.23
2022-12-11T00:21:09.899Z,25.13
2022-12-11T00:23:38.280Z,25.20
2022-12-11T00:26:07.980Z,25.85
2022-12-11T00:28:37.264Z,27.00
2022-12-11T00:31:06.600Z,25.77
2022-12-11T00:33:34.706Z,26.27
2022-12-11T00:36:02.863Z,28.58
2022-12-11T00:38:30.670Z,28.13
2022-12-11T00:40:59.401Z,26.30
2022-12-11T00:43:27.469Z,27.70
2022-12-11T00:45:56.833Z,26.08
2022-12-11T00:48:24.866Z,25.35
2022-12-11T00:50:53.022Z,26.25
2022-12-11T00:53:20.797Z,25.20
2022-12-11T00:55:49.145Z,25.60
2022-12-11T00:58:17.256Z,25.60
2022-12-11T01:00:45.733Z,24.92
2022-12-11T01:03:15.802Z,26.35
2022-12-11T01:05:52.199Z,26.40
2022-12-11T01:08:20.209Z,25.05
2022-12-11T01:10:47.618Z,25.00
2022-12-11T01:13:16.230Z,26.40
2022-12-11T01:15:46.247Z,29.73
2022-12-11T01:18:16.280Z,28.85
2022-12-11T01:20:44.605Z,25.88
2022-12-11T01:23:13.834Z,23.70
2022-12-11T01:25:42.995Z,28.38
2022-12-11T01:28:11.601Z,25.52
2022-12-11T01:30:42.872Z,27.50
2022-12-11T01:33:11.449Z,26.42
2022-12-11T01:35:41.464Z,27.80
2022-12-11T01:38:10.626Z,30.23
2022-12-11T01:40:38.728Z,29.75
2022-12-11T01:43:06.477Z,37.05
2022-12-11T01:45:40.946Z,32.30
2022-12-11T01:48:12.669Z,36.67
2022-12-11T01:50:45.548Z,28.85
2022-12-11T01:53:19.561Z,30.80
2022-12-11T01:55:50.869Z,33.63
2022-12-11T01:58:21.390Z,30.58
2022-12-11T02:03:52.226Z,27.42
2022-12-11T02:06:37.190Z,27.52
2022-12-11T02:09:08.005Z,33.85
2022-12-11T02:11:45.562Z,25.15
2022-12-11T02:14:21.539Z,32.30
2022-12-11T02:16:56.974Z,35.70
2022-12-11T02:19:54.366Z,32.85
2022-12-11T02:22:31.381Z,38.17
2022-12-11T02:25:11.345Z,33.50
2022-12-11T02:27:45.842Z,38.42
2022-12-11T02:30:16.738Z,29.38
2022-12-11T02:32:48.661Z,26.85
2022-12-11T02:35:21.012Z,24.95
2022-12-11T02:37:55.539Z,23.00
2022-12-11T02:40:28.470Z,22.98
2022-12-11T02:42:59.049Z,20.55
2022-12-11T02:45:29.756Z,20.63
2022-12-11T02:48:00.040Z,21.35
2022-12-11T02:50:29.876Z,20.02
2022-12-11T02:53:00.681Z,17.38
2022-12-11T02:55:31.733Z,21.70
2022-12-11T02:58:05.270Z,20.00
2022-12-11T03:00:35.491Z,19.88
2022-12-11T03:03:03.933Z,21.02
2022-12-11T03:05:32.447Z,21.00
2022-12-11T03:08:00.687Z,17.45
2022-12-11T03:10:28.492Z,19.42
2022-12-11T03:12:58.989Z,20.52
2022-12-11T03:15:37.431Z,19.10
2022-12-11T03:18:13.395Z,21.08
2022-12-11T03:20:45.016Z,19.92
2022-12-11T03:23:22.575Z,20.67
2022-12-11T03:25:55.757Z,21.17
2022-12-11T03:28:30.695Z,20.13
2022-12-11T03:31:05.863Z,20.25
2022-12-11T03:33:38.335Z,19.75
2022-12-11T03:38:40.930Z,18.13
2022-12-11T03:41:11.151Z,20.67
2022-12-11T03:43:41.609Z,20.10
2022-12-11T03:46:12.630Z,21.42
2022-12-11T03:48:45.927Z,21.00
2022-12-11T03:51:14.628Z,22.25
2022-12-11T03:53:42.740Z,20.40
2022-12-11T03:56:13.228Z,20.23
2022-12-11T03:58:41.502Z,22.40
2022-12-11T04:01:12.368Z,21.35
2022-12-11T04:03:40.508Z,21.10
2022-12-11T04:06:08.794Z,21.98
2022-12-11T04:08:36.927Z,21.50
2022-12-11T04:11:23.218Z,19.83
2022-12-11T04:14:11.459Z,19.52
2022-12-11T04:16:39.861Z,20.95
2022-12-11T04:19:25.694Z,21.95
2022-12-11T04:22:11.015Z,22.48
2022-12-11T04:24:39.792Z,21.95
2022-12-11T04:27:07.819Z,20.10
2022-12-11T04:29:35.825Z,21.42
2022-12-11T04:32:05.303Z,22.70
2022-12-11T04:34:33.318Z,20.80
2022-12-11T04:37:01.068Z,21.40
2022-12-11T04:39:29.387Z,18.77
2022-12-11T04:41:57.085Z,18.55
2022-12-11T04:44:25.048Z,14.60
2022-12-11T04:46:53.149Z,16.15
2022-12-11T04:49:22.543Z,13.80
2022-12-11T04:51:50.281Z,16.42
2022-12-11T04:54:18.545Z,16.67
2022-12-11T04:56:46.268Z,15.73
2022-12-11T04:59:14.796Z,15.95
2022-12-11T05:01:42.809Z,16.00
2022-12-11T05:04:10.799Z,16.02
2022-12-11T05:06:39.928Z,15.77
2022-12-11T05:09:12.115Z,16.80
2022-12-11T05:11:40.125Z,13.32
2022-12-11T05:14:08.158Z,15.57
2022-12-11T05:16:36.029Z,16.85
2022-12-11T05:19:04.039Z,17.20
2022-12-11T05:21:34.991Z,15.95
2022-12-11T05:24:05.500Z,16.73
2022-12-11T05:26:33.292Z,16.02
2022-12-11T05:29:01.304Z,14.55
2022-12-11T05:31:29.215Z,15.02
2022-12-11T05:33:57.280Z,15.90
2022-12-11T05:36:27.167Z,17.00
2022-12-11T05:38:55.902Z,14.55
2022-12-11T05:41:28.125Z,16.20
2022-12-11T05:43:56.720Z,16.42
2022-12-11T05:46:26.859Z,18.80
2022-12-11T05:48:57.596Z,16.80
2022-12-11T05:51:26.292Z,16.42
2022-12-11T05:53:55.516Z,17.25
2022-12-11T05:56:27.003Z,17.17
2022-12-11T05:58:55.791Z,18.52
2022-12-11T06:01:25.313Z,17.45
2022-12-11T06:03:53.985Z,19.10
2022-12-11T06:06:22.169Z,19.63
2022-12-11T06:08:50.971Z,19.52
2022-12-11T06:11:23.714Z,20.52
2022-12-11T06:13:53.990Z,18.95
2022-12-11T06:16:22.332Z,17.38
2022-12-11T06:18:50.484Z,20.00
2022-12-11T06:21:21.009Z,19.92
2022-12-11T06:23:50.826Z,19.75
2022-12-11T06:26:20.099Z,19.42
2022-12-11T06:28:49.044Z,20.30
2022-12-11T06:31:18.927Z,20.85
2022-12-11T06:33:47.667Z,19.48
2022-12-11T06:36:18.483Z,20.52
2022-12-11T06:38:47.678Z,20.00
2022-12-11T06:41:15.498Z,19.42
2022-12-11T06:43:44.270Z,18.75
2022-12-11T06:46:14.246Z,19.05
2022-12-11T06:48:44.795Z,20.30
2022-12-11T06:51:14.305Z,18.60
2022-12-11T06:53:44.018Z,21.85
2022-12-11T06:56:14.009Z,19.80
2022-12-11T06:58:43.904Z,21.20
2022-12-11T07:01:18.586Z,20.10
2022-12-11T07:03:48.549Z,19.23
2022-12-11T07:06:17.175Z,20.00
2022-12-11T07:08:45.497Z,18.20
2022-12-11T07:11:15.359Z,20.45
2022-12-11T07:13:43.934Z,20.27
2022-12-11T07:16:13.467Z,20.67
2022-12-11T07:18:42.896Z,20.35
2022-12-11T07:21:14.132Z,20.95
2022-12-11T07:23:42.568Z,23.15
2022-12-11T07:26:13.657Z,22.52
2022-12-11T07:28:42.537Z,23.98
2022-12-11T07:31:12.859Z,20.63
2022-12-11T07:33:41.568Z,22.40
2022-12-11T07:36:13.539Z,21.92
2022-12-11T07:41:12.789Z,20.08
2022-12-11T07:43:41.580Z,21.88
2022-12-11T07:46:12.709Z,22.15
2022-12-11T07:48:42.455Z,21.23
2022-12-11T07:51:12.815Z,20.70
2022-12-11T07:53:40.816Z,20.85
2022-12-11T07:56:09.486Z,18.92
2022-12-11T07:58:39.014Z,21.85
2022-12-11T08:01:07.278Z,21.10
2022-12-11T08:03:35.346Z,20.48
2022-12-11T08:06:03.195Z,17.70
2022-12-11T08:08:32.649Z,18.98
2022-12-11T08:11:12.041Z,16.40
2022-12-11T08:21:22.602Z,13.50
2022-12-11T08:24:20.552Z,15.60
2022-12-11T08:26:49.147Z,17.85
2022-12-11T08:29:16.936Z,16.13
2022-12-11T08:31:45.016Z,16.30
2022-12-11T08:34:14.086Z,15.93
2022-12-11T08:36:42.652Z,17.52
2022-12-11T08:39:10.866Z,17.45
2022-12-11T08:41:40.208Z,17.17
2022-12-11T08:44:16.283Z,18.02
2022-12-11T08:46:45.473Z,18.20
2022-12-11T08:49:13.548Z,17.55
2022-12-11T08:51:41.679Z,25.38
2022-12-11T08:54:10.833Z,20.42
2022-12-11T08:56:40.355Z,17.50
2022-12-11T08:59:08.144Z,15.63
2022-12-11T09:01:36.887Z,19.10
2022-12-11T09:04:05.053Z,17.70
2022-12-11T09:06:34.327Z,16.65
2022-12-11T09:09:03.075Z,18.00
2022-12-11T09:11:33.127Z,22.55
2022-12-11T09:14:07.256Z,27.58
2022-12-11T09:16:41.081Z,21.45
2022-12-11T09:19:12.545Z,22.00
2022-12-11T09:21:41.176Z,19.98
2022-12-11T09:24:10.679Z,26.63
2022-12-11T09:26:39.071Z,20.33
2022-12-11T09:29:09.121Z,19.80
2022-12-11T09:31:38.230Z,22.02
2022-12-11T09:34:08.304Z,21.65
2022-12-11T09:36:36.551Z,24.95
2022-12-11T09:39:06.285Z,26.90
2022-12-11T09:41:38.430Z,24.88
2022-12-11T09:44:19.125Z,24.33
2022-12-11T09:46:48.185Z,24.58
2022-12-11T09:49:24.999Z,25.40
2022-12-11T09:52:01.344Z,25.02
2022-12-11T09:54:29.343Z,25.33
2022-12-11T09:57:08.319Z,24.15
2022-12-11T09:59:49.601Z,21.27
2022-12-11T10:02:29.457Z,21.58
2022-12-11T10:05:10.194Z,22.17
2022-12-11T10:07:46.382Z,20.73
2022-12-11T10:10:23.564Z,20.67
2022-12-11T10:13:02.479Z,23.38
2022-12-11T10:15:38.302Z,24.98
2022-12-11T10:18:12.734Z,22.83
2022-12-11T10:20:42.788Z,21.88
2022-12-11T10:23:19.420Z,20.58
2022-12-11T10:25:53.067Z,22.98
2022-12-11T10:28:22.194Z,24.75
2022-12-11T10:31:03.575Z,22.55
2022-12-11T10:33:42.383Z,20.02
2022-12-11T10:36:11.896Z,18.67
2022-12-11T10:38:44.617Z,20.98
2022-12-11T10:43:43.570Z,20.58
2022-12-11T10:46:18.531Z,19.73
2022-12-11T10:48:48.492Z,22.23
2022-12-11T10:51:16.899Z,21.23
2022-12-11T10:53:50.439Z,20.92
2022-12-11T10:56:27.010Z,23.42
2022-12-11T10:58:57.325Z,23.95
2022-12-11T11:01:28.584Z,24.70
2022-12-11T11:04:01.023Z,21.57
2022-12-11T11:06:29.760Z,21.65
2022-12-11T11:09:00.235Z,22.30
2022-12-11T11:11:33.917Z,22.92
2022-12-11T11:14:15.368Z,27.30
2022-12-11T11:16:47.571Z,28.00
2022-12-11T11:19:21.358Z,24.42
2022-12-11T11:21:52.455Z,26.73
2022-12-11T11:24:29.778Z,24.63
2022-12-11T11:27:14.361Z,22.27
2022-12-11T11:29:45.765Z,23.98
2022-12-11T11:32:23.435Z,24.70
2022-12-11T11:34:51.619Z,25.05
2022-12-11T11:37:31.598Z,22.48
2022-12-11T11:40:08.030Z,26.23
2022-12-11T11:42:46.854Z,22.77
2022-12-11T11:45:20.864Z,25.25
2022-12-11T11:48:03.109Z,24.92
2022-12-11T11:50:37.279Z,22.13
2022-12-11T11:53:10.272Z,23.55
2022-12-11T11:55:43.746Z,23.45
2022-12-11T11:58:16.350Z,24.52
2022-12-11T12:00:44.735Z,24.25
2022-12-11T12:03:17.526Z,25.30
2022-12-11T12:05:53.346Z,25.02
2022-12-11T12:08:33.813Z,23.45
2022-12-11T12:11:07.962Z,21.90
2022-12-11T12:13:49.914Z,22.02
2022-12-11T12:16:52.302Z,23.08
2022-12-11T12:19:33.500Z,21.27
2022-12-11T12:22:10.997Z,23.65
2022-12-11T12:24:50.954Z,21.52
2022-12-11T12:27:51.053Z,20.48
2022-12-11T12:30:21.791Z,20.73
2022-12-11T12:33:03.459Z,22.10
2022-12-11T12:35:38.198Z,19.25
2022-12-11T12:38:12.027Z,20.38
2022-12-11T12:40:49.756Z,21.23
2022-12-11T12:43:34.413Z,19.83
2022-12-11T12:46:11.377Z,21.10
2022-12-11T12:48:40.190Z,21.63
2022-12-11T12:51:14.297Z,24.38
2022-12-11T12:53:48.076Z,24.25
2022-12-11T12:56:17.570Z,22.83
2022-12-11T12:58:46.994Z,24.48
2022-12-11T13:01:19.224Z,26.40
2022-12-11T13:03:55.132Z,25.40
2022-12-11T13:06:33.765Z,26.05
2022-12-11T13:09:15.815Z,24.17
2022-12-11T13:11:44.210Z,23.73
2022-12-11T13:14:28.734Z,24.27
2022-12-11T13:17:22.057Z,22.60
2022-12-11T13:19:52.977Z,24.10
2022-12-11T13:22:25.842Z,24.65
2022-12-11T13:25:01.801Z,26.30
2022-12-11T13:27:38.926Z,26.10
2022-12-11T13:30:09.517Z,25.80
2022-12-11T13:32:37.748Z,27.08
2022-12-11T13:35:08.100Z,29.75
2022-12-11T13:37:42.134Z,33.05
2022-12-11T13:40:18.840Z,30.73
2022-12-11T13:42:51.176Z,31.67
2022-12-11T13:45:22.794Z,30.58
2022-12-11T13:47:51.403Z,31.48
2022-12-11T13:50:27.072Z,32.72
2022-12-11T13:52:57.588Z,31.67
2022-12-11T13:55:28.552Z,29.98
2022-12-11T13:57:56.907Z,29.40
2022-12-11T14:00:26.801Z,28.45
2022-12-11T14:02:57.139Z,32.30
2022-12-11T14:05:25.832Z,32.38
2022-12-11T14:07:57.491Z,33.95
2022-12-11T14:10:28.223Z,35.78
2022-12-11T14:13:00.830Z,36.65
2022-12-11T14:15:31.783Z,36.55
2022-12-11T14:18:01.938Z,34.50
2022-12-11T14:20:33.040Z,33.38
2022-12-11T14:23:07.644Z,32.78
2022-12-11T14:25:35.813Z,33.53
2022-12-11T14:28:04.169Z,36.53
2022-12-11T14:30:34.508Z,36.92
2022-12-11T14:33:05.293Z,28.65
2022-12-11T14:35:39.119Z,36.00
2022-12-11T14:38:15.637Z,37.85
2022-12-11T14:40:47.831Z,34.60
2022-12-11T14:43:22.101Z,36.28
2022-12-11T14:45:55.027Z,35.72
2022-12-11T14:48:26.163Z,37.70
2022-12-11T14:50:58.667Z,31.75
2022-12-11T14:53:31.039Z,37.55
2022-12-11T14:56:03.999Z,38.83
2022-12-11T14:58:34.543Z,38.53
2022-12-11T15:01:05.022Z,39.25
2022-12-11T15:03:35.129Z,38.40
2022-12-11T15:06:05.362Z,36.13
2022-12-11T15:08:36.952Z,38.80
2022-12-11T15:11:08.895Z,37.03
2022-12-11T15:13:40.092Z,38.08
2022-12-11T15:16:10.156Z,37.13
2022-12-11T15:18:41.656Z,34.70
2022-12-11T15:21:13.119Z,32.90
2022-12-11T15:23:52.560Z,31.15
2022-12-11T15:26:22.132Z,33.97
2022-12-11T15:29:00.860Z,37.30
2022-12-11T15:31:31.456Z,39.95
2022-12-11T15:34:00.407Z,38.45
2022-12-11T15:36:34.560Z,38.03
2022-12-11T15:39:05.544Z,40.63
2022-12-11T15:41:34.663Z,36.97
2022-12-11T15:44:03.901Z,39.33
2022-12-11T15:46:36.654Z,41.38
2022-12-11T15:49:12.439Z,35.40
2022-12-11T15:51:43.203Z,35.78
2022-12-11T15:54:12.786Z,38.75
2022-12-11T15:56:40.951Z,35.67
2022-12-11T15:59:08.970Z,41.95
2022-12-11T16:01:37.016Z,32.88
2022-12-11T16:04:05.471Z,40.47
2022-12-11T16:06:34.411Z,40.60
2022-12-11T16:09:03.960Z,40.28
2022-12-11T16:11:33.395Z,42.92
2022-12-11T16:14:04.340Z,42.97
2022-12-11T16:16:32.758Z,42.55
2022-12-11T16:19:00.672Z,37.67
2022-12-11T16:21:29.259Z,39.47
2022-12-11T16:23:57.023Z,37.67
2022-12-11T16:26:25.135Z,39.83
2022-12-11T16:28:54.330Z,38.35
2022-12-11T16:31:22.380Z,38.30
2022-12-11T16:33:50.240Z,37.53
2022-12-11T16:36:20.366Z,37.83
2022-12-11T16:38:53.485Z,37.08
2022-12-11T16:41:23.645Z,36.70
2022-12-11T16:43:51.885Z,38.17
2022-12-11T16:46:23.444Z,35.53
2022-12-11T16:48:51.418Z,29.65
2022-12-11T16:51:19.451Z,35.08
2022-12-11T16:53:47.268Z,34.78
2022-12-11T16:56:15.517Z,33.08
2022-12-11T16:58:43.288Z,34.78
2022-12-11T17:01:13.934Z,33.78
2022-12-11T17:03:44.215Z,33.58
2022-12-11T17:06:14.039Z,32.53
2022-12-11T17:08:42.852Z,30.55
2022-12-11T17:11:13.388Z,28.55
2022-12-11T17:13:41.199Z,31.25
2022-12-11T17:16:11.207Z,30.35
2022-12-11T17:18:39.780Z,30.85
2022-12-11T17:21:11.139Z,26.40
2022-12-11T17:23:39.050Z,25.20
2022-12-11T17:26:08.760Z,31.25
2022-12-11T17:28:37.190Z,31.85
2022-12-11T17:31:06.412Z,20.67
2022-12-11T17:33:34.812Z,32.17
2022-12-11T17:36:03.448Z,34.45
2022-12-11T17:38:32.711Z,25.10
2022-12-11T17:41:00.836Z,32.85
2022-12-11T17:43:28.591Z,30.52
2022-12-11T17:45:56.679Z,33.83
2022-12-11T17:48:24.649Z,34.38
2022-12-11T17:50:53.672Z,33.20
2022-12-11T17:53:22.078Z,31.83
2022-12-11T17:55:52.090Z,30.83
2022-12-11T17:58:22.862Z,32.58
2022-12-11T18:00:55.540Z,33.72
2022-12-11T18:03:24.126Z,32.22
2022-12-11T18:05:54.275Z,35.88
2022-12-11T18:08:25.911Z,36.25
2022-12-11T18:10:55.559Z,36.30
2022-12-11T18:13:24.066Z,37.50
2022-12-11T18:16:00.639Z,43.42
2022-12-11T18:18:28.624Z,30.73
2022-12-11T18:20:56.921Z,44.95
2022-12-11T18:23:25.091Z,36.80
2022-12-11T18:25:53.503Z,38.35
2022-12-11T18:28:22.917Z,35.95
2022-12-11T18:30:51.111Z,36.47
2022-12-11T18:33:19.016Z,26.45
2022-12-11T18:35:47.059Z,34.00
2022-12-11T18:38:14.824Z,33.92
2022-12-11T18:40:42.971Z,33.65
2022-12-11T18:43:11.105Z,32.60
2022-12-11T18:45:41.878Z,32.30
2022-12-11T18:48:10.043Z,30.88
2022-12-11T18:50:38.028Z,38.25
2022-12-11T18:53:05.803Z,38.53
2022-12-11T18:55:33.918Z,31.38
2022-12-11T18:58:01.694Z,31.30
2022-12-11T19:00:29.787Z,26.15
2022-12-11T19:02:59.048Z,30.70
2022-12-11T19:05:27.203Z,35.42
2022-12-11T19:07:55.011Z,33.60
2022-12-11T19:10:23.150Z,36.92
2022-12-11T19:12:50.958Z,37.30
2022-12-11T19:15:23.564Z,32.30
2022-12-11T19:17:52.112Z,32.33
2022-12-11T19:23:09.332Z,30.33
2022-12-11T19:25:42.954Z,32.20
2022-12-11T19:28:10.866Z,24.27
2022-12-11T19:30:43.525Z,29.85
2022-12-11T19:33:11.386Z,28.15
2022-12-11T19:35:41.206Z,32.47
2022-12-11T19:38:09.400Z,27.42
2022-12-11T19:40:40.771Z,29.35
2022-12-11T19:43:08.678Z,15.63
2022-12-11T19:45:36.930Z,31.38
2022-12-11T19:48:05.088Z,31.23
2022-12-11T19:50:35.405Z,30.00
2022-12-11T19:53:04.979Z,31.27
2022-12-11T19:55:33.026Z,19.95
2022-12-11T19:58:01.489Z,28.23
2022-12-11T20:00:29.657Z,27.10
2022-12-11T20:02:58.044Z,26.33
2022-12-11T20:05:26.291Z,25.45
2022-12-11T20:07:54.189Z,29.70
2022-12-11T20:10:23.552Z,29.02
2022-12-11T20:12:52.482Z,29.98
2022-12-11T20:15:20.485Z,27.73
2022-12-11T20:17:48.330Z,29.85
2022-12-11T20:20:16.543Z,27.25
2022-12-11T20:22:44.284Z,30.40
2022-12-11T20:25:12.771Z,33.90
2022-12-11T20:27:42.452Z,93.15
2022-12-11T20:30:11.635Z,29.35
2022-12-11T20:32:39.525Z,32.13
2022-12-11T20:35:08.849Z,31.88
2022-12-11T20:37:36.598Z,19.23
2022-12-11T20:40:05.591Z,19.25
2022-12-11T20:42:33.595Z,27.90
2022-12-11T20:45:02.947Z,29.83
2022-12-11T20:47:30.784Z,27.50
2022-12-11T20:49:58.992Z,28.45
2022-12-11T20:52:26.755Z,26.40
2022-12-11T20:54:54.926Z,25.80
2022-12-11T20:57:22.784Z,27.33
2022-12-11T20:59:50.935Z,27.58
2022-12-11T21:02:20.135Z,25.98
2022-12-11T21:04:48.624Z,29.33
2022-12-11T21:07:16.516Z,27.73
2022-12-11T21:09:44.583Z,27.92
2022-12-11T21:12:12.501Z,30.67
2022-12-11T21:14:40.790Z,27.13
2022-12-11T21:17:08.703Z,33.20
2022-12-11T21:19:38.585Z,31.67
2022-12-11T21:22:06.588Z,31.88
2022-12-11T21:24:34.710Z,30.67
2022-12-11T21:27:02.626Z,31.48
2022-12-11T21:29:30.684Z,30.50
2022-12-11T21:31:59.099Z,28.50
2022-12-11T21:34:27.751Z,27.80
2022-12-11T21:36:57.555Z,26.85
2022-12-11T21:39:26.038Z,28.30
2022-12-11T21:41:53.914Z,29.00
2022-12-11T21:47:10.367Z,20.88
2022-12-11T21:49:38.539Z,25.52
2022-12-11T21:52:08.318Z,21.48
2022-12-11T21:54:36.844Z,22.30
2022-12-11T21:57:05.006Z,26.33
2022-12-11T21:59:33.410Z,26.50
2022-12-11T22:02:01.392Z,26.83
2022-12-11T22:04:29.540Z,18.48
2022-12-11T22:06:57.273Z,24.75
2022-12-11T22:09:27.228Z,20.90
2022-12-11T22:11:58.398Z,25.35
2022-12-11T22:14:27.500Z,21.52
2022-12-11T22:16:55.320Z,25.45
2022-12-11T22:19:25.625Z,24.58
2022-12-11T22:21:56.971Z,24.52
2022-12-11T22:24:26.692Z,23.48
2022-12-11T22:26:54.430Z,23.58
2022-12-11T22:29:22.544Z,22.20
2022-12-11T22:31:50.280Z,24.52
2022-12-11T22:34:18.288Z,24.13
2022-12-11T22:36:46.127Z,23.17
2022-12-11T22:39:14.247Z,23.77
2022-12-11T22:41:43.318Z,23.08
2022-12-11T22:44:15.431Z,23.38
2022-12-11T22:46:49.503Z,19.08
2022-12-11T22:49:19.205Z,23.55
2022-12-11T22:51:47.154Z,23.40
2022-12-11T22:54:15.488Z,24.88
2022-12-11T22:56:44.923Z,24.63
2022-12-11T22:59:13.057Z,23.30
2022-12-11T23:01:40.849Z,23.38
2022-12-11T23:04:09.266Z,21.25
2022-12-11T23:06:37.042Z,23.50
2022-12-11T23:09:05.171Z,25.25
2022-12-11T23:11:37.334Z,23.88
2022-12-11T23:16:36.323Z,23.58
2022-12-11T23:19:05.131Z,22.92
2022-12-11T23:21:33.572Z,20.75
2022-12-11T23:24:02.182Z,21.70
2022-12-11T23:26:30.476Z,23.48
2022-12-11T23:28:59.824Z,22.33
2022-12-11T23:31:30.023Z,22.27
2022-12-11T23:33:58.841Z,22.40
2022-12-11T23:36:27.141Z,23.73
2022-12-11T23:38:55.664Z,18.30
2022-12-11T23:41:23.671Z,23.08
2022-12-11T23:43:51.760Z,22.88
2022-12-11T23:46:22.644Z,23.35
2022-12-11T23:48:53.500Z,24.23
2022-12-11T23:51:23.395Z,24.65
2022-12-11T23:53:52.067Z,24.15
2022-12-11T23:56:21.414Z,28.30
2022-12-11T23:58:49.951Z,25.40
